sensor_id;sensor_type;location;lat;lon;timestamp;P1;durP1;ratioP1;P2;durP2;ratioP2
46897;SDS011;32646;50.958;6.258;2022-07-23T00:02:26;0.10;;;0.10;;
46897;SDS011;32646;50.958;6.258;2022-07-23T00:04:53;0.00;;;0.00;;
46897;SDS011;32646;50.958;6.258;2022-07-23T00:07:20;0.00;;;0.00;;
46897;SDS011;32646;50.958;6.258;2022-07-23T00:09:46;0.00;;;0.00;;
46897;SDS011;32646;50.958;6.258;2022-07-23T00:12:13;0.00;;;0.00;;
46897;SDS011;32646;50.958;6.258;2022-07-23T00:14:40;0.00;;;0.00;;
46897;SDS011;32646;50.958;6.258;2022-07-23T00:17:07;0.00;;;0.00;;
46897;SDS011;32646;50.958;6.258;2022-07-23T00:19:33;0.00;;;0.00;;
46897;SDS011;32646;50.958;6.258;2022-07-23T00:22:00;0.00;;;0.00;;
46897;SDS011;32646;50.958;6.258;2022-07-23T00:24:30;0.00;;;0.00;;
46897;SDS011;32646;50.958;6.258;2022-07-23T00:27:06;0.00;;;0.00;;
46897;SDS011;32646;50.958;6.258;2022-07-23T00:29:32;0.00;;;0.00;;
46897;SDS011;32646;50.958;6.258;2022-07-23T00:31:59;0.00;;;0.00;;
46897;SDS011;32646;50.958;6.258;2022-07-23T00:34:25;0.00;;;0.00;;
46897;SDS011;32646;50.958;6.258;2022-07-23T00:36:52;0.00;;;0.00;;
46897;SDS011;32646;50.958;6.258;2022-07-23T00:39:19;0.00;;;0.00;;
46897;SDS011;32646;50.958;6.258;2022-07-23T00:41:46;0.00;;;0.00;;
46897;SDS011;32646;50.958;6.258;2022-07-23T00:44:14;0.00;;;0.00;;
46897;SDS011;32646;50.958;6.258;2022-07-23T00:46:49;0.00;;;0.00;;
46897;SDS011;32646;50.958;6.258;2022-07-23T00:49:17;0.00;;;0.00;;
46897;SDS011;32646;50.958;6.258;2022-07-23T00:51:44;0.00;;;0.00;;
46897;SDS011;32646;50.958;6.258;2022-07-23T00:54:10;0.00;;;0.00;;
46897;SDS011;32646;50.958;6.258;2022-07-23T00:56:37;0.00;;;0.00;;
46897;SDS011;32646;50.958;6.258;2022-07-23T00:59:05;0.00;;;0.00;;
46897;SDS011;32646;50.958;6.258;2022-07-23T01:01:32;0.00;;;0.00;;
46897;SDS011;32646;50.958;6.258;2022-07-23T01:03:59;0.00;;;0.00;;
46897;SDS011;32646;50.958;6.258;2022-07-23T01:06:25;0.00;;;0.00;;
46897;SDS011;32646;50.958;6.258;2022-07-23T01:08:53;0.00;;;0.00;;
46897;SDS011;32646;50.958;6.258;2022-07-23T01:11:21;0.00;;;0.00;;
46897;SDS011;32646;50.958;6.258;2022-07-23T01:13:49;0.00;;;0.00;;
46897;SDS011;32646;50.958;6.258;2022-07-23T01:16:16;0.00;;;0.00;;
46897;SDS011;32646;50.958;6.258;2022-07-23T01:18:42;0.00;;;0.00;;
46897;SDS011;32646;50.958;6.258;2022-07-23T01:21:10;0.00;;;0.00;;
46897;SDS011;32646;50.958;6.258;2022-07-23T01:23:38;0.00;;;0.00;;
46897;SDS011;32646;50.958;6.258;2022-07-23T01:26:06;0.00;;;0.00;;
46897;SDS011;32646;50.958;6.258;2022-07-23T01:28:36;0.00;;;0.00;;
46897;SDS011;32646;50.958;6.258;2022-07-23T01:31:03;0.00;;;0.00;;
46897;SDS011;32646;50.958;6.258;2022-07-23T01:33:29;0.00;;;0.00;;
46897;SDS011;32646;50.958;6.258;2022-07-23T01:35:56;0.00;;;0.00;;
46897;SDS011;32646;50.958;6.258;2022-07-23T01:38:22;0.00;;;0.00;;
46897;SDS011;32646;50.958;6.258;2022-07-23T01:40:49;0.00;;;0.00;;
46897;SDS011;32646;50.958;6.258;2022-07-23T01:43:20;0.00;;;0.00;;
46897;SDS011;32646;50.958;6.258;2022-07-23T01:45:50;0.00;;;0.00;;
46897;SDS011;32646;50.958;6.258;2022-07-23T01:48:17;0.00;;;0.00;;
46897;SDS011;32646;50.958;6.258;2022-07-23T01:50:45;0.00;;;0.00;;
46897;SDS011;32646;50.958;6.258;2022-07-23T01:53:13;0.00;;;0.00;;
46897;SDS011;32646;50.958;6.258;2022-07-23T01:55:41;0.00;;;0.00;;
46897;SDS011;32646;50.958;6.258;2022-07-23T01:58:08;0.00;;;0.00;;
46897;SDS011;32646;50.958;6.258;2022-07-23T02:00:35;0.00;;;0.00;;
46897;SDS011;32646;50.958;6.258;2022-07-23T02:03:02;0.00;;;0.00;;
46897;SDS011;32646;50.958;6.258;2022-07-23T02:05:28;0.00;;;0.00;;
46897;SDS011;32646;50.958;6.258;2022-07-23T02:07:55;0.00;;;0.00;;
46897;SDS011;32646;50.958;6.258;2022-07-23T02:10:22;0.00;;;0.00;;
46897;SDS011;32646;50.958;6.258;2022-07-23T02:12:49;0.00;;;0.00;;
46897;SDS011;32646;50.958;6.258;2022-07-23T02:15:15;0.00;;;0.00;;
46897;SDS011;32646;50.958;6.258;2022-07-23T02:17:42;0.00;;;0.00;;
46897;SDS011;32646;50.958;6.258;2022-07-23T02:20:09;0.00;;;0.00;;
46897;SDS011;32646;50.958;6.258;2022-07-23T02:22:37;0.00;;;0.00;;
46897;SDS011;32646;50.958;6.258;2022-07-23T02:25:04;0.00;;;0.00;;
46897;SDS011;32646;50.958;6.258;2022-07-23T02:27:32;0.00;;;0.00;;
46897;SDS011;32646;50.958;6.258;2022-07-23T02:29:59;0.00;;;0.00;;
46897;SDS011;32646;50.958;6.258;2022-07-23T02:32:26;0.00;;;0.00;;
46897;SDS011;32646;50.958;6.258;2022-07-23T02:34:53;0.00;;;0.00;;
46897;SDS011;32646;50.958;6.258;2022-07-23T02:37:20;0.00;;;0.00;;
46897;SDS011;32646;50.958;6.258;2022-07-23T02:39:47;0.00;;;0.00;;
46897;SDS011;32646;50.958;6.258;2022-07-23T02:42:14;0.00;;;0.00;;
46897;SDS011;32646;50.958;6.258;2022-07-23T02:44:41;0.00;;;0.00;;
46897;SDS011;32646;50.958;6.258;2022-07-23T02:47:08;0.00;;;0.00;;
46897;SDS011;32646;50.958;6.258;2022-07-23T02:49:35;0.10;;;0.10;;
46897;SDS011;32646;50.958;6.258;2022-07-23T02:52:01;0.00;;;0.00;;
46897;SDS011;32646;50.958;6.258;2022-07-23T02:54:28;0.00;;;0.00;;
46897;SDS011;32646;50.958;6.258;2022-07-23T02:56:54;0.00;;;0.00;;
46897;SDS011;32646;50.958;6.258;2022-07-23T02:59:21;0.00;;;0.00;;
46897;SDS011;32646;50.958;6.258;2022-07-23T03:01:48;0.00;;;0.00;;
46897;SDS011;32646;50.958;6.258;2022-07-23T03:04:14;0.10;;;0.10;;
46897;SDS011;32646;50.958;6.258;2022-07-23T03:06:41;0.00;;;0.00;;
46897;SDS011;32646;50.958;6.258;2022-07-23T03:09:08;0.00;;;0.00;;
46897;SDS011;32646;50.958;6.258;2022-07-23T03:11:34;0.08;;;0.08;;
46897;SDS011;32646;50.958;6.258;2022-07-23T03:14:01;0.10;;;0.10;;
46897;SDS011;32646;50.958;6.258;2022-07-23T03:16:27;0.00;;;0.00;;
46897;SDS011;32646;50.958;6.258;2022-07-23T03:18:54;0.00;;;0.00;;
46897;SDS011;32646;50.958;6.258;2022-07-23T03:21:21;0.00;;;0.00;;
46897;SDS011;32646;50.958;6.258;2022-07-23T03:23:47;0.30;;;0.30;;
46897;SDS011;32646;50.958;6.258;2022-07-23T03:26:14;0.10;;;0.10;;
46897;SDS011;32646;50.958;6.258;2022-07-23T03:28:41;0.20;;;0.20;;
46897;SDS011;32646;50.958;6.258;2022-07-23T03:31:07;0.10;;;0.10;;
46897;SDS011;32646;50.958;6.258;2022-07-23T03:33:35;0.25;;;0.25;;
46897;SDS011;32646;50.958;6.258;2022-07-23T03:36:02;0.25;;;0.25;;
46897;SDS011;32646;50.958;6.258;2022-07-23T03:38:34;0.20;;;0.20;;
46897;SDS011;32646;50.958;6.258;2022-07-23T03:41:01;0.15;;;0.15;;
46897;SDS011;32646;50.958;6.258;2022-07-23T03:43:28;0.20;;;0.20;;
46897;SDS011;32646;50.958;6.258;2022-07-23T03:45:54;0.20;;;0.20;;
46897;SDS011;32646;50.958;6.258;2022-07-23T03:48:21;0.22;;;0.22;;
46897;SDS011;32646;50.958;6.258;2022-07-23T03:50:48;0.30;;;0.30;;
46897;SDS011;32646;50.958;6.258;2022-07-23T03:53:14;0.28;;;0.28;;
46897;SDS011;32646;50.958;6.258;2022-07-23T03:55:41;0.40;;;0.40;;
46897;SDS011;32646;50.958;6.258;2022-07-23T03:58:07;0.85;;;0.82;;
46897;SDS011;32646;50.958;6.258;2022-07-23T04:00:34;0.98;;;0.88;;
46897;SDS011;32646;50.958;6.258;2022-07-23T04:03:01;1.27;;;1.10;;
46897;SDS011;32646;50.958;6.258;2022-07-23T04:05:27;1.42;;;1.30;;
46897;SDS011;32646;50.958;6.258;2022-07-23T04:07:54;2.10;;;1.48;;
46897;SDS011;32646;50.958;6.258;2022-07-23T04:10:21;1.83;;;1.27;;
46897;SDS011;32646;50.958;6.258;2022-07-23T04:12:50;1.63;;;1.17;;
46897;SDS011;32646;50.958;6.258;2022-07-23T04:15:22;1.98;;;1.38;;
46897;SDS011;32646;50.958;6.258;2022-07-23T04:17:54;0.45;;;0.43;;
46897;SDS011;32646;50.958;6.258;2022-07-23T04:20:23;0.93;;;0.70;;
46897;SDS011;32646;50.958;6.258;2022-07-23T04:22:50;0.70;;;0.68;;
46897;SDS011;32646;50.958;6.258;2022-07-23T04:25:17;1.10;;;0.77;;
46897;SDS011;32646;50.958;6.258;2022-07-23T04:27:43;0.93;;;0.80;;
46897;SDS011;32646;50.958;6.258;2022-07-23T04:30:10;1.13;;;0.90;;
46897;SDS011;32646;50.958;6.258;2022-07-23T04:32:37;0.80;;;0.63;;
46897;SDS011;32646;50.958;6.258;2022-07-23T04:35:03;0.60;;;0.57;;
46897;SDS011;32646;50.958;6.258;2022-07-23T04:37:30;0.85;;;0.80;;
46897;SDS011;32646;50.958;6.258;2022-07-23T04:39:57;0.50;;;0.50;;
46897;SDS011;32646;50.958;6.258;2022-07-23T04:42:25;0.57;;;0.57;;
46897;SDS011;32646;50.958;6.258;2022-07-23T04:44:51;0.30;;;0.30;;
46897;SDS011;32646;50.958;6.258;2022-07-23T04:47:18;0.40;;;0.40;;
46897;SDS011;32646;50.958;6.258;2022-07-23T04:49:48;0.20;;;0.20;;
46897;SDS011;32646;50.958;6.258;2022-07-23T04:52:14;0.10;;;0.10;;
46897;SDS011;32646;50.958;6.258;2022-07-23T04:54:41;0.13;;;0.13;;
46897;SDS011;32646;50.958;6.258;2022-07-23T04:57:07;0.30;;;0.30;;
46897;SDS011;32646;50.958;6.258;2022-07-23T04:59:34;0.10;;;0.10;;
46897;SDS011;32646;50.958;6.258;2022-07-23T05:02:00;0.10;;;0.10;;
46897;SDS011;32646;50.958;6.258;2022-07-23T05:04:27;0.10;;;0.10;;
46897;SDS011;32646;50.958;6.258;2022-07-23T05:06:54;0.00;;;0.00;;
46897;SDS011;32646;50.958;6.258;2022-07-23T05:09:20;0.10;;;0.10;;
46897;SDS011;32646;50.958;6.258;2022-07-23T05:11:47;0.10;;;0.10;;
46897;SDS011;32646;50.958;6.258;2022-07-23T05:14:14;0.10;;;0.10;;
46897;SDS011;32646;50.958;6.258;2022-07-23T05:16:40;0.10;;;0.10;;
46897;SDS011;32646;50.958;6.258;2022-07-23T05:19:07;0.05;;;0.05;;
46897;SDS011;32646;50.958;6.258;2022-07-23T05:21:34;0.00;;;0.00;;
46897;SDS011;32646;50.958;6.258;2022-07-23T05:24:01;0.20;;;0.20;;
46897;SDS011;32646;50.958;6.258;2022-07-23T05:26:27;0.10;;;0.10;;
46897;SDS011;32646;50.958;6.258;2022-07-23T05:28:54;0.10;;;0.10;;
46897;SDS011;32646;50.958;6.258;2022-07-23T05:31:20;0.00;;;0.00;;
46897;SDS011;32646;50.958;6.258;2022-07-23T05:33:47;0.10;;;0.10;;
46897;SDS011;32646;50.958;6.258;2022-07-23T05:36:13;0.10;;;0.10;;
46897;SDS011;32646;50.958;6.258;2022-07-23T05:38:40;0.10;;;0.10;;
46897;SDS011;32646;50.958;6.258;2022-07-23T05:41:07;0.00;;;0.00;;
46897;SDS011;32646;50.958;6.258;2022-07-23T05:43:33;0.00;;;0.00;;
46897;SDS011;32646;50.958;6.258;2022-07-23T05:46:00;0.00;;;0.00;;
46897;SDS011;32646;50.958;6.258;2022-07-23T05:48:27;0.00;;;0.00;;
46897;SDS011;32646;50.958;6.258;2022-07-23T05:50:53;0.00;;;0.00;;
46897;SDS011;32646;50.958;6.258;2022-07-23T05:53:20;0.05;;;0.05;;
46897;SDS011;32646;50.958;6.258;2022-07-23T05:55:47;0.10;;;0.10;;
46897;SDS011;32646;50.958;6.258;2022-07-23T05:58:13;0.00;;;0.00;;
46897;SDS011;32646;50.958;6.258;2022-07-23T06:00:40;0.00;;;0.00;;
46897;SDS011;32646;50.958;6.258;2022-07-23T06:03:06;0.00;;;0.00;;
46897;SDS011;32646;50.958;6.258;2022-07-23T06:05:33;0.10;;;0.10;;
46897;SDS011;32646;50.958;6.258;2022-07-23T06:08:00;0.00;;;0.00;;
46897;SDS011;32646;50.958;6.258;2022-07-23T06:10:26;0.00;;;0.00;;
46897;SDS011;32646;50.958;6.258;2022-07-23T06:12:53;0.00;;;0.00;;
46897;SDS011;32646;50.958;6.258;2022-07-23T06:15:27;0.00;;;0.00;;
46897;SDS011;32646;50.958;6.258;2022-07-23T06:17:53;0.00;;;0.00;;
46897;SDS011;32646;50.958;6.258;2022-07-23T06:20:20;0.00;;;0.00;;
46897;SDS011;32646;50.958;6.258;2022-07-23T06:22:46;0.00;;;0.00;;
46897;SDS011;32646;50.958;6.258;2022-07-23T06:25:13;0.00;;;0.00;;
46897;SDS011;32646;50.958;6.258;2022-07-23T06:27:45;0.00;;;0.00;;
46897;SDS011;32646;50.958;6.258;2022-07-23T06:30:12;0.10;;;0.10;;
46897;SDS011;32646;50.958;6.258;2022-07-23T06:32:42;0.10;;;0.10;;
46897;SDS011;32646;50.958;6.258;2022-07-23T06:35:09;0.00;;;0.00;;
46897;SDS011;32646;50.958;6.258;2022-07-23T06:37:35;0.00;;;0.00;;
46897;SDS011;32646;50.958;6.258;2022-07-23T06:40:02;0.00;;;0.00;;
46897;SDS011;32646;50.958;6.258;2022-07-23T06:42:31;0.00;;;0.00;;
46897;SDS011;32646;50.958;6.258;2022-07-23T06:44:58;0.00;;;0.00;;
46897;SDS011;32646;50.958;6.258;2022-07-23T06:47:25;0.10;;;0.10;;
46897;SDS011;32646;50.958;6.258;2022-07-23T06:49:52;0.00;;;0.00;;
46897;SDS011;32646;50.958;6.258;2022-07-23T06:52:19;0.00;;;0.00;;
46897;SDS011;32646;50.958;6.258;2022-07-23T06:54:45;0.00;;;0.00;;
46897;SDS011;32646;50.958;6.258;2022-07-23T06:57:12;0.10;;;0.10;;
46897;SDS011;32646;50.958;6.258;2022-07-23T06:59:39;0.00;;;0.00;;
46897;SDS011;32646;50.958;6.258;2022-07-23T07:02:06;0.00;;;0.00;;
46897;SDS011;32646;50.958;6.258;2022-07-23T07:04:33;0.00;;;0.00;;
46897;SDS011;32646;50.958;6.258;2022-07-23T07:07:00;0.08;;;0.08;;
46897;SDS011;32646;50.958;6.258;2022-07-23T07:09:27;0.10;;;0.10;;
46897;SDS011;32646;50.958;6.258;2022-07-23T07:11:53;0.10;;;0.10;;
46897;SDS011;32646;50.958;6.258;2022-07-23T07:14:20;0.00;;;0.00;;
46897;SDS011;32646;50.958;6.258;2022-07-23T07:16:47;0.10;;;0.10;;
46897;SDS011;32646;50.958;6.258;2022-07-23T07:19:14;0.10;;;0.10;;
46897;SDS011;32646;50.958;6.258;2022-07-23T07:21:40;0.10;;;0.10;;
46897;SDS011;32646;50.958;6.258;2022-07-23T07:24:07;0.10;;;0.10;;
46897;SDS011;32646;50.958;6.258;2022-07-23T07:26:35;0.00;;;0.00;;
46897;SDS011;32646;50.958;6.258;2022-07-23T07:29:02;0.10;;;0.10;;
46897;SDS011;32646;50.958;6.258;2022-07-23T07:31:29;0.00;;;0.00;;
46897;SDS011;32646;50.958;6.258;2022-07-23T07:33:56;0.00;;;0.00;;
46897;SDS011;32646;50.958;6.258;2022-07-23T07:36:24;0.10;;;0.10;;
46897;SDS011;32646;50.958;6.258;2022-07-23T07:38:50;0.00;;;0.00;;
46897;SDS011;32646;50.958;6.258;2022-07-23T07:41:17;0.00;;;0.00;;
46897;SDS011;32646;50.958;6.258;2022-07-23T07:43:44;0.00;;;0.00;;
46897;SDS011;32646;50.958;6.258;2022-07-23T07:46:11;0.00;;;0.00;;
46897;SDS011;32646;50.958;6.258;2022-07-23T07:48:38;0.00;;;0.00;;
46897;SDS011;32646;50.958;6.258;2022-07-23T07:51:05;0.10;;;0.10;;
46897;SDS011;32646;50.958;6.258;2022-07-23T07:53:32;0.08;;;0.08;;
46897;SDS011;32646;50.958;6.258;2022-07-23T07:55:58;0.00;;;0.00;;
46897;SDS011;32646;50.958;6.258;2022-07-23T07:58:25;0.10;;;0.10;;
46897;SDS011;32646;50.958;6.258;2022-07-23T08:00:52;0.00;;;0.00;;
46897;SDS011;32646;50.958;6.258;2022-07-23T08:03:19;0.00;;;0.00;;
46897;SDS011;32646;50.958;6.258;2022-07-23T08:05:46;0.08;;;0.08;;
46897;SDS011;32646;50.958;6.258;2022-07-23T08:08:12;0.00;;;0.00;;
46897;SDS011;32646;50.958;6.258;2022-07-23T08:10:39;0.00;;;0.00;;
46897;SDS011;32646;50.958;6.258;2022-07-23T08:13:06;0.00;;;0.00;;
46897;SDS011;32646;50.958;6.258;2022-07-23T08:15:33;0.00;;;0.00;;
46897;SDS011;32646;50.958;6.258;2022-07-23T08:18:00;0.00;;;0.00;;
46897;SDS011;32646;50.958;6.258;2022-07-23T08:20:26;0.00;;;0.00;;
46897;SDS011;32646;50.958;6.258;2022-07-23T08:22:58;0.00;;;0.00;;
46897;SDS011;32646;50.958;6.258;2022-07-23T08:25:36;0.00;;;0.00;;
46897;SDS011;32646;50.958;6.258;2022-07-23T08:28:05;0.00;;;0.00;;
46897;SDS011;32646;50.958;6.258;2022-07-23T08:30:34;0.00;;;0.00;;
46897;SDS011;32646;50.958;6.258;2022-07-23T08:33:09;0.00;;;0.00;;
46897;SDS011;32646;50.958;6.258;2022-07-23T08:35:55;0.00;;;0.00;;
46897;SDS011;32646;50.958;6.258;2022-07-23T08:38:22;0.00;;;0.00;;
46897;SDS011;32646;50.958;6.258;2022-07-23T08:40:50;0.00;;;0.00;;
46897;SDS011;32646;50.958;6.258;2022-07-23T08:43:22;0.00;;;0.00;;
46897;SDS011;32646;50.958;6.258;2022-07-23T08:45:51;0.00;;;0.00;;
46897;SDS011;32646;50.958;6.258;2022-07-23T08:48:20;0.00;;;0.00;;
46897;SDS011;32646;50.958;6.258;2022-07-23T08:50:50;0.00;;;0.00;;
46897;SDS011;32646;50.958;6.258;2022-07-23T08:53:18;0.00;;;0.00;;
46897;SDS011;32646;50.958;6.258;2022-07-23T08:55:49;0.00;;;0.00;;
46897;SDS011;32646;50.958;6.258;2022-07-23T08:58:17;0.00;;;0.00;;
46897;SDS011;32646;50.958;6.258;2022-07-23T09:00:50;0.00;;;0.00;;
46897;SDS011;32646;50.958;6.258;2022-07-23T09:03:18;0.00;;;0.00;;
46897;SDS011;32646;50.958;6.258;2022-07-23T09:05:51;0.00;;;0.00;;
46897;SDS011;32646;50.958;6.258;2022-07-23T09:08:20;0.00;;;0.00;;
46897;SDS011;32646;50.958;6.258;2022-07-23T09:11:04;0.00;;;0.00;;
46897;SDS011;32646;50.958;6.258;2022-07-23T09:16:29;0.00;;;0.00;;
46897;SDS011;32646;50.958;6.258;2022-07-23T09:21:33;0.00;;;0.00;;
46897;SDS011;32646;50.958;6.258;2022-07-23T09:29:20;0.00;;;0.00;;
46897;SDS011;32646;50.958;6.258;2022-07-23T09:34:25;0.00;;;0.00;;
46897;SDS011;32646;50.958;6.258;2022-07-23T09:37:18;0.00;;;0.00;;
46897;SDS011;32646;50.958;6.258;2022-07-23T09:39:45;0.00;;;0.00;;
46897;SDS011;32646;50.958;6.258;2022-07-23T09:44:48;0.00;;;0.00;;
46897;SDS011;32646;50.958;6.258;2022-07-23T09:47:16;0.00;;;0.00;;
46897;SDS011;32646;50.958;6.258;2022-07-23T09:50:03;0.00;;;0.00;;
46897;SDS011;32646;50.958;6.258;2022-07-23T09:52:33;0.00;;;0.00;;
46897;SDS011;32646;50.958;6.258;2022-07-23T09:55:14;0.00;;;0.00;;
46897;SDS011;32646;50.958;6.258;2022-07-23T09:57:42;0.00;;;0.00;;
46897;SDS011;32646;50.958;6.258;2022-07-23T10:00:09;0.00;;;0.00;;
46897;SDS011;32646;50.958;6.258;2022-07-23T10:02:36;0.00;;;0.00;;
46897;SDS011;32646;50.958;6.258;2022-07-23T10:05:05;0.00;;;0.00;;
46897;SDS011;32646;50.958;6.258;2022-07-23T10:07:37;0.00;;;0.00;;
46897;SDS011;32646;50.958;6.258;2022-07-23T10:10:05;0.00;;;0.00;;
46897;SDS011;32646;50.958;6.258;2022-07-23T10:12:36;0.00;;;0.00;;
46897;SDS011;32646;50.958;6.258;2022-07-23T10:15:04;0.00;;;0.00;;
46897;SDS011;32646;50.958;6.258;2022-07-23T10:17:32;0.00;;;0.00;;
46897;SDS011;32646;50.958;6.258;2022-07-23T10:19:59;0.00;;;0.00;;
46897;SDS011;32646;50.958;6.258;2022-07-23T10:22:27;0.00;;;0.00;;
46897;SDS011;32646;50.958;6.258;2022-07-23T10:34:19;0.00;;;0.00;;
46897;SDS011;32646;50.958;6.258;2022-07-23T10:36:56;0.00;;;0.00;;
46897;SDS011;32646;50.958;6.258;2022-07-23T10:39:47;0.00;;;0.00;;
46897;SDS011;32646;50.958;6.258;2022-07-23T10:42:15;0.00;;;0.00;;
46897;SDS011;32646;50.958;6.258;2022-07-23T10:44:43;0.00;;;0.00;;
46897;SDS011;32646;50.958;6.258;2022-07-23T10:47:25;0.00;;;0.00;;
46897;SDS011;32646;50.958;6.258;2022-07-23T10:52:41;0.00;;;0.00;;
46897;SDS011;32646;50.958;6.258;2022-07-23T10:58:05;0.00;;;0.00;;
46897;SDS011;32646;50.958;6.258;2022-07-23T11:00:33;0.00;;;0.00;;
46897;SDS011;32646;50.958;6.258;2022-07-23T11:03:02;0.00;;;0.00;;
46897;SDS011;32646;50.958;6.258;2022-07-23T11:05:43;0.00;;;0.00;;
46897;SDS011;32646;50.958;6.258;2022-07-23T11:10:43;0.00;;;0.00;;
46897;SDS011;32646;50.958;6.258;2022-07-23T11:16:20;0.00;;;0.00;;
46897;SDS011;32646;50.958;6.258;2022-07-23T11:26:40;0.00;;;0.00;;
46897;SDS011;32646;50.958;6.258;2022-07-23T11:31:55;0.00;;;0.00;;
46897;SDS011;32646;50.958;6.258;2022-07-23T11:36:56;0.00;;;0.00;;
46897;SDS011;32646;50.958;6.258;2022-07-23T11:39:24;0.00;;;0.00;;
46897;SDS011;32646;50.958;6.258;2022-07-23T11:41:52;0.00;;;0.00;;
46897;SDS011;32646;50.958;6.258;2022-07-23T11:47:09;0.00;;;0.00;;
46897;SDS011;32646;50.958;6.258;2022-07-23T11:49:36;0.00;;;0.00;;
46897;SDS011;32646;50.958;6.258;2022-07-23T11:52:06;0.00;;;0.00;;
46897;SDS011;32646;50.958;6.258;2022-07-23T11:54:48;0.00;;;0.00;;
46897;SDS011;32646;50.958;6.258;2022-07-23T11:57:19;0.00;;;0.00;;
46897;SDS011;32646;50.958;6.258;2022-07-23T11:59:53;0.00;;;0.00;;
46897;SDS011;32646;50.958;6.258;2022-07-23T12:02:23;0.00;;;0.00;;
46897;SDS011;32646;50.958;6.258;2022-07-23T12:04:50;0.00;;;0.00;;
46897;SDS011;32646;50.958;6.258;2022-07-23T12:07:31;0.00;;;0.00;;
46897;SDS011;32646;50.958;6.258;2022-07-23T12:10:01;0.00;;;0.00;;
46897;SDS011;32646;50.958;6.258;2022-07-23T12:12:40;0.00;;;0.00;;
46897;SDS011;32646;50.958;6.258;2022-07-23T12:15:08;0.00;;;0.00;;
46897;SDS011;32646;50.958;6.258;2022-07-23T12:17:37;0.00;;;0.00;;
46897;SDS011;32646;50.958;6.258;2022-07-23T12:20:06;0.00;;;0.00;;
46897;SDS011;32646;50.958;6.258;2022-07-23T12:22:48;0.00;;;0.00;;
46897;SDS011;32646;50.958;6.258;2022-07-23T12:25:20;0.00;;;0.00;;
46897;SDS011;32646;50.958;6.258;2022-07-23T12:28:02;0.00;;;0.00;;
46897;SDS011;32646;50.958;6.258;2022-07-23T12:33:14;0.00;;;0.00;;
46897;SDS011;32646;50.958;6.258;2022-07-23T12:35:47;0.00;;;0.00;;
46897;SDS011;32646;50.958;6.258;2022-07-23T12:38:15;0.00;;;0.00;;
46897;SDS011;32646;50.958;6.258;2022-07-23T12:43:19;0.00;;;0.00;;
46897;SDS011;32646;50.958;6.258;2022-07-23T12:46:02;0.00;;;0.00;;
46897;SDS011;32646;50.958;6.258;2022-07-23T12:48:35;0.00;;;0.00;;
46897;SDS011;32646;50.958;6.258;2022-07-23T12:51:08;0.00;;;0.00;;
46897;SDS011;32646;50.958;6.258;2022-07-23T12:53:53;0.00;;;0.00;;
46897;SDS011;32646;50.958;6.258;2022-07-23T12:56:21;0.00;;;0.00;;
46897;SDS011;32646;50.958;6.258;2022-07-23T12:58:56;0.00;;;0.00;;
46897;SDS011;32646;50.958;6.258;2022-07-23T13:01:33;0.00;;;0.00;;
46897;SDS011;32646;50.958;6.258;2022-07-23T13:04:05;0.00;;;0.00;;
46897;SDS011;32646;50.958;6.258;2022-07-23T13:06:43;0.00;;;0.00;;
46897;SDS011;32646;50.958;6.258;2022-07-23T13:09:14;0.00;;;0.00;;
46897;SDS011;32646;50.958;6.258;2022-07-23T13:11:45;0.00;;;0.00;;
46897;SDS011;32646;50.958;6.258;2022-07-23T13:14:13;0.00;;;0.00;;
46897;SDS011;32646;50.958;6.258;2022-07-23T13:16:41;0.00;;;0.00;;
46897;SDS011;32646;50.958;6.258;2022-07-23T13:19:08;0.00;;;0.00;;
46897;SDS011;32646;50.958;6.258;2022-07-23T13:21:37;0.00;;;0.00;;
46897;SDS011;32646;50.958;6.258;2022-07-23T13:24:06;0.00;;;0.00;;
46897;SDS011;32646;50.958;6.258;2022-07-23T13:26:34;0.00;;;0.00;;
46897;SDS011;32646;50.958;6.258;2022-07-23T13:29:01;0.00;;;0.00;;
46897;SDS011;32646;50.958;6.258;2022-07-23T13:31:29;0.00;;;0.00;;
46897;SDS011;32646;50.958;6.258;2022-07-23T13:33:55;0.00;;;0.00;;
46897;SDS011;32646;50.958;6.258;2022-07-23T13:36:22;0.00;;;0.00;;
46897;SDS011;32646;50.958;6.258;2022-07-23T13:38:49;0.00;;;0.00;;
46897;SDS011;32646;50.958;6.258;2022-07-23T13:41:16;0.00;;;0.00;;
46897;SDS011;32646;50.958;6.258;2022-07-23T13:43:44;0.00;;;0.00;;
46897;SDS011;32646;50.958;6.258;2022-07-23T13:46:12;0.00;;;0.00;;
46897;SDS011;32646;50.958;6.258;2022-07-23T13:48:39;0.00;;;0.00;;
46897;SDS011;32646;50.958;6.258;2022-07-23T13:51:07;0.00;;;0.00;;
46897;SDS011;32646;50.958;6.258;2022-07-23T13:53:36;0.00;;;0.00;;
46897;SDS011;32646;50.958;6.258;2022-07-23T13:56:03;0.00;;;0.00;;
46897;SDS011;32646;50.958;6.258;2022-07-23T13:58:29;0.00;;;0.00;;
46897;SDS011;32646;50.958;6.258;2022-07-23T14:00:56;0.00;;;0.00;;
46897;SDS011;32646;50.958;6.258;2022-07-23T14:03:23;0.00;;;0.00;;
46897;SDS011;32646;50.958;6.258;2022-07-23T14:05:51;0.00;;;0.00;;
46897;SDS011;32646;50.958;6.258;2022-07-23T14:08:21;0.00;;;0.00;;
46897;SDS011;32646;50.958;6.258;2022-07-23T14:10:48;0.00;;;0.00;;
46897;SDS011;32646;50.958;6.258;2022-07-23T14:13:15;0.00;;;0.00;;
46897;SDS011;32646;50.958;6.258;2022-07-23T14:15:41;0.00;;;0.00;;
46897;SDS011;32646;50.958;6.258;2022-07-23T14:18:08;0.00;;;0.00;;
46897;SDS011;32646;50.958;6.258;2022-07-23T14:20:35;0.00;;;0.00;;
46897;SDS011;32646;50.958;6.258;2022-07-23T14:23:04;0.00;;;0.00;;
46897;SDS011;32646;50.958;6.258;2022-07-23T14:25:31;0.00;;;0.00;;
46897;SDS011;32646;50.958;6.258;2022-07-23T14:27:59;0.00;;;0.00;;
46897;SDS011;32646;50.958;6.258;2022-07-23T14:30:28;0.00;;;0.00;;
46897;SDS011;32646;50.958;6.258;2022-07-23T14:33:00;0.00;;;0.00;;
46897;SDS011;32646;50.958;6.258;2022-07-23T14:35:29;0.00;;;0.00;;
46897;SDS011;32646;50.958;6.258;2022-07-23T14:37:55;0.00;;;0.00;;
46897;SDS011;32646;50.958;6.258;2022-07-23T14:40:23;0.00;;;0.00;;
46897;SDS011;32646;50.958;6.258;2022-07-23T14:42:54;0.00;;;0.00;;
46897;SDS011;32646;50.958;6.258;2022-07-23T14:45:21;0.00;;;0.00;;
46897;SDS011;32646;50.958;6.258;2022-07-23T14:47:47;0.00;;;0.00;;
46897;SDS011;32646;50.958;6.258;2022-07-23T14:50:14;0.00;;;0.00;;
46897;SDS011;32646;50.958;6.258;2022-07-23T14:52:42;0.00;;;0.00;;
46897;SDS011;32646;50.958;6.258;2022-07-23T14:55:09;0.00;;;0.00;;
46897;SDS011;32646;50.958;6.258;2022-07-23T14:57:35;0.00;;;0.00;;
46897;SDS011;32646;50.958;6.258;2022-07-23T15:00:08;0.00;;;0.00;;
46897;SDS011;32646;50.958;6.258;2022-07-23T15:02:41;0.00;;;0.00;;
46897;SDS011;32646;50.958;6.258;2022-07-23T15:05:10;0.00;;;0.00;;
46897;SDS011;32646;50.958;6.258;2022-07-23T15:07:43;0.00;;;0.00;;
46897;SDS011;32646;50.958;6.258;2022-07-23T15:10:10;0.00;;;0.00;;
46897;SDS011;32646;50.958;6.258;2022-07-23T15:12:39;0.00;;;0.00;;
46897;SDS011;32646;50.958;6.258;2022-07-23T15:15:08;0.00;;;0.00;;
46897;SDS011;32646;50.958;6.258;2022-07-23T15:17:35;0.00;;;0.00;;
46897;SDS011;32646;50.958;6.258;2022-07-23T15:20:02;0.00;;;0.00;;
46897;SDS011;32646;50.958;6.258;2022-07-23T15:22:29;0.00;;;0.00;;
46897;SDS011;32646;50.958;6.258;2022-07-23T15:24:58;0.00;;;0.00;;
46897;SDS011;32646;50.958;6.258;2022-07-23T15:27:25;0.00;;;0.00;;
46897;SDS011;32646;50.958;6.258;2022-07-23T15:29:56;0.00;;;0.00;;
46897;SDS011;32646;50.958;6.258;2022-07-23T15:32:22;0.00;;;0.00;;
46897;SDS011;32646;50.958;6.258;2022-07-23T15:34:49;0.00;;;0.00;;
46897;SDS011;32646;50.958;6.258;2022-07-23T15:37:16;0.00;;;0.00;;
46897;SDS011;32646;50.958;6.258;2022-07-23T15:39:46;0.00;;;0.00;;
46897;SDS011;32646;50.958;6.258;2022-07-23T15:42:13;0.00;;;0.00;;
46897;SDS011;32646;50.958;6.258;2022-07-23T15:44:40;0.00;;;0.00;;
46897;SDS011;32646;50.958;6.258;2022-07-23T15:47:11;0.00;;;0.00;;
46897;SDS011;32646;50.958;6.258;2022-07-23T15:49:40;0.00;;;0.00;;
46897;SDS011;32646;50.958;6.258;2022-07-23T15:52:08;0.00;;;0.00;;
46897;SDS011;32646;50.958;6.258;2022-07-23T15:54:36;0.00;;;0.00;;